sensor_id;sensor_type;location;lat;lon;timestamp;P1;durP1;ratioP1;P2;durP2;ratioP2
63005;SDS011;53704;52.532;6.426;2024-03-06T00:00:56;56.67;;;36.53;;
63005;SDS011;53704;52.532;6.426;2024-03-06T00:03:22;66.57;;;37.90;;
63005;SDS011;53704;52.532;6.426;2024-03-06T00:05:47;62.47;;;36.67;;
63005;SDS011;53704;52.532;6.426;2024-03-06T00:08:13;64.75;;;37.08;;
63005;SDS011;53704;52.532;6.426;2024-03-06T00:10:40;64.43;;;37.10;;
63005;SDS011;53704;52.532;6.426;2024-03-06T00:13:05;64.70;;;36.00;;
63005;SDS011;53704;52.532;6.426;2024-03-06T00:15:31;67.78;;;37.70;;
63005;SDS011;53704;52.532;6.426;2024-03-06T00:17:56;65.07;;;38.17;;
63005;SDS011;53704;52.532;6.426;2024-03-06T00:20:23;65.32;;;38.92;;
63005;SDS011;53704;52.532;6.426;2024-03-06T00:22:49;57.63;;;36.63;;
63005;SDS011;53704;52.532;6.426;2024-03-06T00:25:14;74.60;;;38.35;;
63005;SDS011;53704;52.532;6.426;2024-03-06T00:27:40;59.83;;;36.72;;
63005;SDS011;53704;52.532;6.426;2024-03-06T00:30:05;62.97;;;38.78;;
63005;SDS011;53704;52.532;6.426;2024-03-06T00:32:31;65.45;;;37.15;;
63005;SDS011;53704;52.532;6.426;2024-03-06T00:34:57;66.38;;;38.25;;
63005;SDS011;53704;52.532;6.426;2024-03-06T00:37:22;60.03;;;36.92;;
63005;SDS011;53704;52.532;6.426;2024-03-06T00:39:48;65.78;;;39.05;;
63005;SDS011;53704;52.532;6.426;2024-03-06T00:42:13;66.50;;;38.22;;
63005;SDS011;53704;52.532;6.426;2024-03-06T00:44:39;60.90;;;37.10;;
63005;SDS011;53704;52.532;6.426;2024-03-06T00:47:04;63.13;;;36.75;;
63005;SDS011;53704;52.532;6.426;2024-03-06T00:49:30;69.57;;;38.88;;
63005;SDS011;53704;52.532;6.426;2024-03-06T00:51:56;63.47;;;38.03;;
63005;SDS011;53704;52.532;6.426;2024-03-06T00:54:21;60.15;;;36.42;;
63005;SDS011;53704;52.532;6.426;2024-03-06T00:56:47;78.20;;;38.45;;
63005;SDS011;53704;52.532;6.426;2024-03-06T00:59:12;59.17;;;34.35;;
63005;SDS011;53704;52.532;6.426;2024-03-06T01:01:38;62.13;;;35.47;;
63005;SDS011;53704;52.532;6.426;2024-03-06T01:04:03;60.67;;;37.33;;
63005;SDS011;53704;52.532;6.426;2024-03-06T01:06:29;65.10;;;38.42;;
63005;SDS011;53704;52.532;6.426;2024-03-06T01:08:54;66.82;;;36.50;;
63005;SDS011;53704;52.532;6.426;2024-03-06T01:11:21;61.80;;;37.28;;
63005;SDS011;53704;52.532;6.426;2024-03-06T01:13:47;65.05;;;36.72;;
63005;SDS011;53704;52.532;6.426;2024-03-06T01:16:12;63.65;;;36.85;;
63005;SDS011;53704;52.532;6.426;2024-03-06T01:18:38;72.97;;;38.47;;
63005;SDS011;53704;52.532;6.426;2024-03-06T01:21:03;61.97;;;36.85;;
63005;SDS011;53704;52.532;6.426;2024-03-06T01:23:29;66.85;;;37.65;;
63005;SDS011;53704;52.532;6.426;2024-03-06T01:25:55;73.38;;;39.03;;
63005;SDS011;53704;52.532;6.426;2024-03-06T01:28:20;63.67;;;35.45;;
63005;SDS011;53704;52.532;6.426;2024-03-06T01:30:46;67.38;;;37.20;;
63005;SDS011;53704;52.532;6.426;2024-03-06T01:33:11;67.20;;;38.88;;
63005;SDS011;53704;52.532;6.426;2024-03-06T01:35:36;71.85;;;38.75;;
63005;SDS011;53704;52.532;6.426;2024-03-06T01:38:02;65.35;;;37.42;;
63005;SDS011;53704;52.532;6.426;2024-03-06T01:40:27;62.60;;;37.53;;
63005;SDS011;53704;52.532;6.426;2024-03-06T01:42:54;60.40;;;37.53;;
63005;SDS011;53704;52.532;6.426;2024-03-06T01:45:20;61.50;;;36.25;;
63005;SDS011;53704;52.532;6.426;2024-03-06T01:47:45;72.20;;;37.22;;
63005;SDS011;53704;52.532;6.426;2024-03-06T01:50:10;68.95;;;39.03;;
63005;SDS011;53704;52.532;6.426;2024-03-06T01:52:37;64.90;;;39.95;;
63005;SDS011;53704;52.532;6.426;2024-03-06T01:55:06;69.32;;;37.55;;
63005;SDS011;53704;52.532;6.426;2024-03-06T01:57:32;68.10;;;37.58;;
63005;SDS011;53704;52.532;6.426;2024-03-06T01:59:59;64.38;;;37.75;;
63005;SDS011;53704;52.532;6.426;2024-03-06T02:02:26;75.18;;;39.38;;
63005;SDS011;53704;52.532;6.426;2024-03-06T02:04:53;58.42;;;36.90;;
63005;SDS011;53704;52.532;6.426;2024-03-06T02:07:19;62.97;;;37.35;;
63005;SDS011;53704;52.532;6.426;2024-03-06T02:09:46;73.30;;;37.17;;
63005;SDS011;53704;52.532;6.426;2024-03-06T02:12:11;69.28;;;37.05;;
63005;SDS011;53704;52.532;6.426;2024-03-06T02:14:38;66.63;;;38.38;;
63005;SDS011;53704;52.532;6.426;2024-03-06T02:17:04;66.13;;;37.22;;
63005;SDS011;53704;52.532;6.426;2024-03-06T02:19:39;63.38;;;37.70;;
63005;SDS011;53704;52.532;6.426;2024-03-06T02:22:06;71.80;;;39.58;;
63005;SDS011;53704;52.532;6.426;2024-03-06T02:24:32;65.85;;;38.88;;
63005;SDS011;53704;52.532;6.426;2024-03-06T02:26:58;62.97;;;37.03;;
63005;SDS011;53704;52.532;6.426;2024-03-06T02:29:23;67.43;;;37.03;;
63005;SDS011;53704;52.532;6.426;2024-03-06T02:31:50;68.88;;;37.97;;
63005;SDS011;53704;52.532;6.426;2024-03-06T02:34:16;67.15;;;37.30;;
63005;SDS011;53704;52.532;6.426;2024-03-06T02:36:41;76.85;;;37.83;;
63005;SDS011;53704;52.532;6.426;2024-03-06T02:39:07;61.65;;;35.67;;
63005;SDS011;53704;52.532;6.426;2024-03-06T02:41:35;58.10;;;35.88;;
63005;SDS011;53704;52.532;6.426;2024-03-06T02:44:01;58.20;;;36.75;;
63005;SDS011;53704;52.532;6.426;2024-03-06T02:46:27;69.93;;;37.10;;
63005;SDS011;53704;52.532;6.426;2024-03-06T02:48:53;54.58;;;33.80;;
63005;SDS011;53704;52.532;6.426;2024-03-06T02:51:19;62.20;;;37.92;;
63005;SDS011;53704;52.532;6.426;2024-03-06T02:53:45;71.43;;;39.10;;
63005;SDS011;53704;52.532;6.426;2024-03-06T02:56:18;69.40;;;35.92;;
63005;SDS011;53704;52.532;6.426;2024-03-06T03:01:11;66.85;;;34.72;;
63005;SDS011;53704;52.532;6.426;2024-03-06T03:03:39;60.15;;;35.85;;
63005;SDS011;53704;52.532;6.426;2024-03-06T03:06:06;63.58;;;35.70;;
63005;SDS011;53704;52.532;6.426;2024-03-06T03:08:31;60.10;;;34.15;;
63005;SDS011;53704;52.532;6.426;2024-03-06T03:10:57;58.38;;;36.42;;
63005;SDS011;53704;52.532;6.426;2024-03-06T03:13:22;63.70;;;35.90;;
63005;SDS011;53704;52.532;6.426;2024-03-06T03:15:48;68.18;;;37.78;;
63005;SDS011;53704;52.532;6.426;2024-03-06T03:18:14;64.28;;;36.85;;
63005;SDS011;53704;52.532;6.426;2024-03-06T03:20:40;63.78;;;37.25;;
63005;SDS011;53704;52.532;6.426;2024-03-06T03:23:05;61.20;;;36.17;;
63005;SDS011;53704;52.532;6.426;2024-03-06T03:25:36;64.25;;;37.65;;
63005;SDS011;53704;52.532;6.426;2024-03-06T03:28:02;73.63;;;39.58;;
63005;SDS011;53704;52.532;6.426;2024-03-06T03:30:28;59.90;;;38.03;;
63005;SDS011;53704;52.532;6.426;2024-03-06T03:32:54;60.67;;;35.10;;
63005;SDS011;53704;52.532;6.426;2024-03-06T03:35:22;67.22;;;35.58;;
63005;SDS011;53704;52.532;6.426;2024-03-06T03:37:50;71.57;;;36.95;;
63005;SDS011;53704;52.532;6.426;2024-03-06T03:40:17;67.53;;;36.22;;
63005;SDS011;53704;52.532;6.426;2024-03-06T03:42:46;63.13;;;37.30;;
63005;SDS011;53704;52.532;6.426;2024-03-06T03:45:15;61.78;;;35.72;;
63005;SDS011;53704;52.532;6.426;2024-03-06T03:47:41;79.68;;;40.35;;
63005;SDS011;53704;52.532;6.426;2024-03-06T03:50:08;67.15;;;38.05;;
63005;SDS011;53704;52.532;6.426;2024-03-06T03:52:34;71.70;;;36.83;;
63005;SDS011;53704;52.532;6.426;2024-03-06T03:54:59;63.63;;;37.78;;
63005;SDS011;53704;52.532;6.426;2024-03-06T03:57:31;62.40;;;36.53;;
63005;SDS011;53704;52.532;6.426;2024-03-06T03:59:57;59.72;;;36.90;;
63005;SDS011;53704;52.532;6.426;2024-03-06T04:02:27;74.00;;;39.05;;
63005;SDS011;53704;52.532;6.426;2024-03-06T04:04:52;74.63;;;38.92;;
63005;SDS011;53704;52.532;6.426;2024-03-06T04:07:18;77.47;;;38.78;;
63005;SDS011;53704;52.532;6.426;2024-03-06T04:09:44;70.93;;;38.08;;
63005;SDS011;53704;52.532;6.426;2024-03-06T04:12:09;82.85;;;37.00;;
63005;SDS011;53704;52.532;6.426;2024-03-06T04:14:35;67.93;;;39.28;;
63005;SDS011;53704;52.532;6.426;2024-03-06T04:17:01;71.63;;;38.55;;
63005;SDS011;53704;52.532;6.426;2024-03-06T04:19:29;64.20;;;35.90;;
63005;SDS011;53704;52.532;6.426;2024-03-06T04:21:54;77.68;;;39.42;;
63005;SDS011;53704;52.532;6.426;2024-03-06T04:24:19;68.38;;;38.17;;
63005;SDS011;53704;52.532;6.426;2024-03-06T04:26:45;63.70;;;39.30;;
63005;SDS011;53704;52.532;6.426;2024-03-06T04:29:13;73.43;;;38.70;;
63005;SDS011;53704;52.532;6.426;2024-03-06T04:31:40;66.65;;;38.28;;
63005;SDS011;53704;52.532;6.426;2024-03-06T04:34:06;69.53;;;38.38;;
63005;SDS011;53704;52.532;6.426;2024-03-06T04:36:32;80.78;;;39.65;;
63005;SDS011;53704;52.532;6.426;2024-03-06T04:38:57;68.18;;;39.05;;
63005;SDS011;53704;52.532;6.426;2024-03-06T04:41:22;76.60;;;40.50;;
63005;SDS011;53704;52.532;6.426;2024-03-06T04:43:48;71.18;;;39.60;;
63005;SDS011;53704;52.532;6.426;2024-03-06T04:46:15;76.43;;;39.42;;
63005;SDS011;53704;52.532;6.426;2024-03-06T04:48:41;90.13;;;42.20;;
63005;SDS011;53704;52.532;6.426;2024-03-06T04:51:06;77.88;;;40.35;;
63005;SDS011;53704;52.532;6.426;2024-03-06T04:53:33;84.68;;;41.80;;
63005;SDS011;53704;52.532;6.426;2024-03-06T04:55:58;73.80;;;41.17;;
63005;SDS011;53704;52.532;6.426;2024-03-06T04:58:24;77.47;;;41.72;;
63005;SDS011;53704;52.532;6.426;2024-03-06T05:00:49;84.25;;;41.25;;
63005;SDS011;53704;52.532;6.426;2024-03-06T05:03:16;75.47;;;42.15;;
63005;SDS011;53704;52.532;6.426;2024-03-06T05:05:41;98.15;;;43.15;;
63005;SDS011;53704;52.532;6.426;2024-03-06T05:08:07;76.15;;;40.13;;
63005;SDS011;53704;52.532;6.426;2024-03-06T05:10:32;79.55;;;43.85;;
63005;SDS011;53704;52.532;6.426;2024-03-06T05:12:58;70.32;;;40.97;;
63005;SDS011;53704;52.532;6.426;2024-03-06T05:15:23;84.70;;;43.42;;
63005;SDS011;53704;52.532;6.426;2024-03-06T05:17:49;88.80;;;41.10;;
63005;SDS011;53704;52.532;6.426;2024-03-06T05:20:14;80.22;;;41.40;;
63005;SDS011;53704;52.532;6.426;2024-03-06T05:22:40;91.70;;;45.28;;
63005;SDS011;53704;52.532;6.426;2024-03-06T05:25:05;78.60;;;39.92;;
63005;SDS011;53704;52.532;6.426;2024-03-06T05:27:31;72.63;;;39.25;;
63005;SDS011;53704;52.532;6.426;2024-03-06T05:29:57;75.82;;;39.58;;
63005;SDS011;53704;52.532;6.426;2024-03-06T05:32:22;73.00;;;38.55;;
63005;SDS011;53704;52.532;6.426;2024-03-06T05:34:47;66.93;;;35.65;;
63005;SDS011;53704;52.532;6.426;2024-03-06T05:37:13;61.30;;;33.97;;
63005;SDS011;53704;52.532;6.426;2024-03-06T05:39:39;56.90;;;33.38;;
63005;SDS011;53704;52.532;6.426;2024-03-06T05:42:05;60.03;;;32.38;;
63005;SDS011;53704;52.532;6.426;2024-03-06T05:44:31;56.78;;;31.00;;
63005;SDS011;53704;52.532;6.426;2024-03-06T05:46:59;49.80;;;30.73;;
63005;SDS011;53704;52.532;6.426;2024-03-06T05:49:26;54.30;;;30.60;;
63005;SDS011;53704;52.532;6.426;2024-03-06T05:51:52;54.90;;;29.73;;
63005;SDS011;53704;52.532;6.426;2024-03-06T05:54:18;59.95;;;28.80;;
63005;SDS011;53704;52.532;6.426;2024-03-06T05:56:44;46.05;;;26.67;;
63005;SDS011;53704;52.532;6.426;2024-03-06T05:59:10;49.70;;;27.00;;
63005;SDS011;53704;52.532;6.426;2024-03-06T06:01:35;48.20;;;27.00;;
63005;SDS011;53704;52.532;6.426;2024-03-06T06:04:01;47.78;;;26.95;;
63005;SDS011;53704;52.532;6.426;2024-03-06T06:06:27;48.25;;;25.55;;
63005;SDS011;53704;52.532;6.426;2024-03-06T06:08:53;49.22;;;26.42;;
63005;SDS011;53704;52.532;6.426;2024-03-06T06:11:19;41.05;;;22.60;;
63005;SDS011;53704;52.532;6.426;2024-03-06T06:13:44;54.13;;;24.17;;
63005;SDS011;53704;52.532;6.426;2024-03-06T06:16:10;41.70;;;22.95;;
63005;SDS011;53704;52.532;6.426;2024-03-06T06:18:37;41.13;;;22.08;;
63005;SDS011;53704;52.532;6.426;2024-03-06T06:21:07;36.50;;;22.38;;
63005;SDS011;53704;52.532;6.426;2024-03-06T06:23:33;35.47;;;22.63;;
63005;SDS011;53704;52.532;6.426;2024-03-06T06:25:59;36.00;;;21.13;;
63005;SDS011;53704;52.532;6.426;2024-03-06T06:28:26;38.42;;;21.00;;
63005;SDS011;53704;52.532;6.426;2024-03-06T06:30:51;33.20;;;21.00;;
63005;SDS011;53704;52.532;6.426;2024-03-06T06:33:20;30.45;;;20.67;;
63005;SDS011;53704;52.532;6.426;2024-03-06T06:35:48;34.22;;;21.10;;
63005;SDS011;53704;52.532;6.426;2024-03-06T06:38:14;41.20;;;22.10;;
63005;SDS011;53704;52.532;6.426;2024-03-06T06:40:39;34.10;;;22.20;;
63005;SDS011;53704;52.532;6.426;2024-03-06T06:43:08;39.85;;;22.73;;
63005;SDS011;53704;52.532;6.426;2024-03-06T06:45:34;41.30;;;21.67;;
63005;SDS011;53704;52.532;6.426;2024-03-06T06:48:00;38.63;;;22.13;;
63005;SDS011;53704;52.532;6.426;2024-03-06T06:50:25;43.25;;;22.08;;
63005;SDS011;53704;52.532;6.426;2024-03-06T06:52:52;39.47;;;21.85;;
63005;SDS011;53704;52.532;6.426;2024-03-06T06:55:18;39.47;;;22.15;;
63005;SDS011;53704;52.532;6.426;2024-03-06T06:57:45;45.53;;;22.48;;
63005;SDS011;53704;52.532;6.426;2024-03-06T07:00:11;45.30;;;24.38;;
63005;SDS011;53704;52.532;6.426;2024-03-06T07:02:39;51.40;;;22.85;;
63005;SDS011;53704;52.532;6.426;2024-03-06T07:05:10;44.38;;;23.35;;
63005;SDS011;53704;52.532;6.426;2024-03-06T07:07:36;44.95;;;25.27;;
63005;SDS011;53704;52.532;6.426;2024-03-06T07:10:03;53.92;;;25.85;;
63005;SDS011;53704;52.532;6.426;2024-03-06T07:12:30;46.75;;;25.13;;
63005;SDS011;53704;52.532;6.426;2024-03-06T07:14:57;68.00;;;25.75;;
63005;SDS011;53704;52.532;6.426;2024-03-06T07:17:23;56.00;;;27.10;;
63005;SDS011;53704;52.532;6.426;2024-03-06T07:19:49;64.85;;;27.88;;
63005;SDS011;53704;52.532;6.426;2024-03-06T07:22:16;51.55;;;28.30;;
63005;SDS011;53704;52.532;6.426;2024-03-06T07:24:41;53.00;;;28.50;;
63005;SDS011;53704;52.532;6.426;2024-03-06T07:27:07;56.10;;;29.58;;
63005;SDS011;53704;52.532;6.426;2024-03-06T07:29:36;68.65;;;30.75;;
63005;SDS011;53704;52.532;6.426;2024-03-06T07:32:01;65.03;;;30.20;;
63005;SDS011;53704;52.532;6.426;2024-03-06T07:34:28;57.33;;;31.35;;
63005;SDS011;53704;52.532;6.426;2024-03-06T07:36:53;62.13;;;31.85;;
63005;SDS011;53704;52.532;6.426;2024-03-06T07:39:19;68.70;;;32.35;;
63005;SDS011;53704;52.532;6.426;2024-03-06T07:41:45;66.95;;;32.72;;
63005;SDS011;53704;52.532;6.426;2024-03-06T07:44:11;75.07;;;34.65;;
63005;SDS011;53704;52.532;6.426;2024-03-06T07:46:37;64.32;;;33.15;;
63005;SDS011;53704;52.532;6.426;2024-03-06T07:49:04;71.63;;;32.17;;
63005;SDS011;53704;52.532;6.426;2024-03-06T07:51:33;73.25;;;33.28;;
63005;SDS011;53704;52.532;6.426;2024-03-06T07:53:59;70.75;;;33.25;;
63005;SDS011;53704;52.532;6.426;2024-03-06T07:56:27;76.38;;;34.70;;
63005;SDS011;53704;52.532;6.426;2024-03-06T07:58:54;72.63;;;32.63;;
63005;SDS011;53704;52.532;6.426;2024-03-06T08:01:20;72.43;;;33.85;;
63005;SDS011;53704;52.532;6.426;2024-03-06T08:03:48;74.70;;;33.47;;
63005;SDS011;53704;52.532;6.426;2024-03-06T08:06:13;68.35;;;32.15;;
63005;SDS011;53704;52.532;6.426;2024-03-06T08:08:41;64.32;;;32.58;;
63005;SDS011;53704;52.532;6.426;2024-03-06T08:11:06;64.90;;;32.03;;
63005;SDS011;53704;52.532;6.426;2024-03-06T08:13:32;77.03;;;33.28;;
63005;SDS011;53704;52.532;6.426;2024-03-06T08:15:59;69.78;;;33.83;;
63005;SDS011;53704;52.532;6.426;2024-03-06T08:18:24;78.43;;;32.75;;
63005;SDS011;53704;52.532;6.426;2024-03-06T08:20:50;69.00;;;32.78;;
63005;SDS011;53704;52.532;6.426;2024-03-06T08:23:15;58.10;;;30.92;;
63005;SDS011;53704;52.532;6.426;2024-03-06T08:25:41;67.55;;;32.15;;
63005;SDS011;53704;52.532;6.426;2024-03-06T08:28:06;81.03;;;34.42;;
63005;SDS011;53704;52.532;6.426;2024-03-06T08:30:32;70.13;;;33.58;;
63005;SDS011;53704;52.532;6.426;2024-03-06T08:32:57;75.30;;;34.03;;
63005;SDS011;53704;52.532;6.426;2024-03-06T08:35:23;68.35;;;33.38;;
63005;SDS011;53704;52.532;6.426;2024-03-06T08:37:50;79.20;;;35.90;;
63005;SDS011;53704;52.532;6.426;2024-03-06T08:40:15;76.93;;;32.92;;
63005;SDS011;53704;52.532;6.426;2024-03-06T08:42:45;102.55;;;38.35;;
63005;SDS011;53704;52.532;6.426;2024-03-06T08:45:14;76.82;;;35.03;;
63005;SDS011;53704;52.532;6.426;2024-03-06T08:47:41;70.38;;;36.13;;
63005;SDS011;53704;52.532;6.426;2024-03-06T08:50:08;68.28;;;36.17;;
63005;SDS011;53704;52.532;6.426;2024-03-06T08:52:34;77.15;;;36.65;;
63005;SDS011;53704;52.532;6.426;2024-03-06T08:55:01;82.53;;;39.63;;
63005;SDS011;53704;52.532;6.426;2024-03-06T08:57:29;84.43;;;38.35;;
63005;SDS011;53704;52.532;6.426;2024-03-06T08:59:56;71.53;;;35.80;;
63005;SDS011;53704;52.532;6.426;2024-03-06T09:02:22;81.53;;;35.00;;
63005;SDS011;53704;52.532;6.426;2024-03-06T09:04:47;76.78;;;37.85;;
63005;SDS011;53704;52.532;6.426;2024-03-06T09:07:13;80.45;;;38.70;;
63005;SDS011;53704;52.532;6.426;2024-03-06T09:09:39;79.85;;;38.30;;
63005;SDS011;53704;52.532;6.426;2024-03-06T09:12:06;76.28;;;38.40;;
63005;SDS011;53704;52.532;6.426;2024-03-06T09:14:35;81.18;;;39.53;;
63005;SDS011;53704;52.532;6.426;2024-03-06T09:17:10;84.20;;;38.28;;
63005;SDS011;53704;52.532;6.426;2024-03-06T09:19:39;84.18;;;40.53;;
63005;SDS011;53704;52.532;6.426;2024-03-06T09:22:06;73.80;;;36.35;;
63005;SDS011;53704;52.532;6.426;2024-03-06T09:24:32;73.78;;;37.75;;
63005;SDS011;53704;52.532;6.426;2024-03-06T09:26:57;76.25;;;38.88;;
63005;SDS011;53704;52.532;6.426;2024-03-06T09:29:23;78.63;;;37.33;;
63005;SDS011;53704;52.532;6.426;2024-03-06T09:31:49;79.60;;;35.30;;
63005;SDS011;53704;52.532;6.426;2024-03-06T09:34:14;74.40;;;36.30;;
63005;SDS011;53704;52.532;6.426;2024-03-06T09:36:40;70.93;;;36.15;;
63005;SDS011;53704;52.532;6.426;2024-03-06T09:39:10;63.67;;;34.60;;
63005;SDS011;53704;52.532;6.426;2024-03-06T09:41:43;66.07;;;34.60;;
63005;SDS011;53704;52.532;6.426;2024-03-06T09:44:09;59.88;;;32.30;;
63005;SDS011;53704;52.532;6.426;2024-03-06T09:46:35;83.18;;;36.47;;
63005;SDS011;53704;52.532;6.426;2024-03-06T09:49:02;65.78;;;32.22;;
63005;SDS011;53704;52.532;6.426;2024-03-06T09:51:28;76.38;;;36.25;;
63005;SDS011;53704;52.532;6.426;2024-03-06T09:53:54;60.67;;;34.00;;
63005;SDS011;53704;52.532;6.426;2024-03-06T09:56:20;70.13;;;33.20;;
63005;SDS011;53704;52.532;6.426;2024-03-06T09:58:45;57.67;;;33.63;;
63005;SDS011;53704;52.532;6.426;2024-03-06T10:01:12;59.03;;;32.58;;
63005;SDS011;53704;52.532;6.426;2024-03-06T10:03:39;58.00;;;30.77;;
63005;SDS011;53704;52.532;6.426;2024-03-06T10:06:10;61.50;;;31.85;;
63005;SDS011;53704;52.532;6.426;2024-03-06T10:08:36;54.28;;;31.92;;
63005;SDS011;53704;52.532;6.426;2024-03-06T10:11:07;51.65;;;31.88;;
63005;SDS011;53704;52.532;6.426;2024-03-06T10:13:32;50.40;;;30.48;;
63005;SDS011;53704;52.532;6.426;2024-03-06T10:15:59;49.55;;;29.45;;
63005;SDS011;53704;52.532;6.426;2024-03-06T10:18:29;52.33;;;30.33;;
63005;SDS011;53704;52.532;6.426;2024-03-06T10:20:56;70.45;;;32.78;;
63005;SDS011;53704;52.532;6.426;2024-03-06T10:23:28;50.30;;;30.60;;
63005;SDS011;53704;52.532;6.426;2024-03-06T10:25:54;53.75;;;31.90;;
63005;SDS011;53704;52.532;6.426;2024-03-06T10:28:20;59.30;;;33.80;;
63005;SDS011;53704;52.532;6.426;2024-03-06T10:30:47;56.05;;;33.88;;
63005;SDS011;53704;52.532;6.426;2024-03-06T10:33:14;62.85;;;35.28;;
63005;SDS011;53704;52.532;6.426;2024-03-06T10:35:45;50.08;;;31.75;;
63005;SDS011;53704;52.532;6.426;2024-03-06T10:38:14;56.00;;;31.13;;
63005;SDS011;53704;52.532;6.426;2024-03-06T10:40:41;48.83;;;32.47;;
63005;SDS011;53704;52.532;6.426;2024-03-06T10:43:07;54.92;;;31.88;;
63005;SDS011;53704;52.532;6.426;2024-03-06T10:45:40;52.53;;;32.47;;
63005;SDS011;53704;52.532;6.426;2024-03-06T10:48:11;52.97;;;31.35;;
63005;SDS011;53704;52.532;6.426;2024-03-06T10:50:39;58.92;;;32.10;;
63005;SDS011;53704;52.532;6.426;2024-03-06T10:53:09;50.22;;;30.15;;
63005;SDS011;53704;52.532;6.426;2024-03-06T10:55:35;53.45;;;30.95;;
63005;SDS011;53704;52.532;6.426;2024-03-06T10:58:02;52.45;;;29.35;;
63005;SDS011;53704;52.532;6.426;2024-03-06T11:00:37;52.55;;;30.23;;
63005;SDS011;53704;52.532;6.426;2024-03-06T11:03:07;44.30;;;29.30;;
63005;SDS011;53704;52.532;6.426;2024-03-06T11:05:38;49.13;;;30.50;;
63005;SDS011;53704;52.532;6.426;2024-03-06T11:08:14;50.22;;;30.92;;
63005;SDS011;53704;52.532;6.426;2024-03-06T11:10:42;48.95;;;28.42;;
63005;SDS011;53704;52.532;6.426;2024-03-06T11:13:30;56.33;;;31.45;;
63005;SDS011;53704;52.532;6.426;2024-03-06T11:15:59;47.75;;;29.38;;
63005;SDS011;53704;52.532;6.426;2024-03-06T11:23:31;43.72;;;26.25;;
63005;SDS011;53704;52.532;6.426;2024-03-06T11:26:04;41.00;;;26.92;;
63005;SDS011;53704;52.532;6.426;2024-03-06T11:28:31;41.67;;;26.77;;
63005;SDS011;53704;52.532;6.426;2024-03-06T11:31:00;44.00;;;27.75;;
63005;SDS011;53704;52.532;6.426;2024-03-06T11:36:25;47.22;;;25.35;;
63005;SDS011;53704;52.532;6.426;2024-03-06T11:39:07;43.50;;;27.40;;
63005;SDS011;53704;52.532;6.426;2024-03-06T11:44:12;41.22;;;25.65;;
63005;SDS011;53704;52.532;6.426;2024-03-06T11:46:46;53.55;;;27.52;;
63005;SDS011;53704;52.532;6.426;2024-03-06T11:49:22;46.65;;;27.05;;
63005;SDS011;53704;52.532;6.426;2024-03-06T11:51:54;43.10;;;26.75;;
63005;SDS011;53704;52.532;6.426;2024-03-06T11:54:22;39.72;;;25.25;;
63005;SDS011;53704;52.532;6.426;2024-03-06T11:56:55;50.53;;;25.58;;
63005;SDS011;53704;52.532;6.426;2024-03-06T12:01:54;38.92;;;25.52;;
63005;SDS011;53704;52.532;6.426;2024-03-06T12:04:22;45.17;;;25.30;;
63005;SDS011;53704;52.532;6.426;2024-03-06T12:06:49;38.78;;;24.38;;
63005;SDS011;53704;52.532;6.426;2024-03-06T12:09:14;37.88;;;23.20;;
63005;SDS011;53704;52.532;6.426;2024-03-06T12:11:41;37.17;;;23.77;;
63005;SDS011;53704;52.532;6.426;2024-03-06T12:14:17;36.50;;;24.08;;
63005;SDS011;53704;52.532;6.426;2024-03-06T12:16:56;43.00;;;25.75;;
63005;SDS011;53704;52.532;6.426;2024-03-06T12:19:23;42.22;;;24.50;;
63005;SDS011;53704;52.532;6.426;2024-03-06T12:21:50;37.47;;;25.60;;
63005;SDS011;53704;52.532;6.426;2024-03-06T12:24:16;34.50;;;24.88;;
63005;SDS011;53704;52.532;6.426;2024-03-06T12:26:44;38.17;;;25.55;;
63005;SDS011;53704;52.532;6.426;2024-03-06T12:29:16;40.03;;;24.77;;
63005;SDS011;53704;52.532;6.426;2024-03-06T12:31:42;35.58;;;23.65;;
63005;SDS011;53704;52.532;6.426;2024-03-06T12:34:08;42.40;;;25.05;;
63005;SDS011;53704;52.532;6.426;2024-03-06T12:36:39;43.53;;;25.27;;
63005;SDS011;53704;52.532;6.426;2024-03-06T12:39:04;49.42;;;25.58;;
63005;SDS011;53704;52.532;6.426;2024-03-06T12:41:38;40.63;;;26.80;;
63005;SDS011;53704;52.532;6.426;2024-03-06T12:44:05;42.28;;;25.45;;
63005;SDS011;53704;52.532;6.426;2024-03-06T12:46:31;41.05;;;23.85;;
63005;SDS011;53704;52.532;6.426;2024-03-06T12:48:57;49.38;;;25.55;;
63005;SDS011;53704;52.532;6.426;2024-03-06T12:51:22;37.45;;;24.13;;
63005;SDS011;53704;52.532;6.426;2024-03-06T12:53:48;40.05;;;25.38;;
63005;SDS011;53704;52.532;6.426;2024-03-06T12:56:13;43.08;;;25.15;;
63005;SDS011;53704;52.532;6.426;2024-03-06T12:58:39;37.03;;;25.48;;
63005;SDS011;53704;52.532;6.426;2024-03-06T13:01:04;40.00;;;24.88;;
63005;SDS011;53704;52.532;6.426;2024-03-06T13:03:30;43.30;;;26.15;;
63005;SDS011;53704;52.532;6.426;2024-03-06T13:05:57;38.88;;;24.45;;
63005;SDS011;53704;52.532;6.426;2024-03-06T13:08:23;43.28;;;24.13;;
63005;SDS011;53704;52.532;6.426;2024-03-06T13:10:48;38.28;;;25.63;;
63005;SDS011;53704;52.532;6.426;2024-03-06T13:13:14;44.53;;;26.52;;
63005;SDS011;53704;52.532;6.426;2024-03-06T13:15:39;45.33;;;26.63;;
63005;SDS011;53704;52.532;6.426;2024-03-06T13:18:05;42.47;;;25.70;;
63005;SDS011;53704;52.532;6.426;2024-03-06T13:20:31;40.85;;;25.50;;
63005;SDS011;53704;52.532;6.426;2024-03-06T13:22:57;37.72;;;26.13;;
63005;SDS011;53704;52.532;6.426;2024-03-06T13:25:22;38.95;;;25.83;;
63005;SDS011;53704;52.532;6.426;2024-03-06T13:27:48;41.42;;;25.42;;
63005;SDS011;53704;52.532;6.426;2024-03-06T13:30:14;42.00;;;25.33;;
63005;SDS011;53704;52.532;6.426;2024-03-06T13:32:40;49.20;;;24.67;;
63005;SDS011;53704;52.532;6.426;2024-03-06T13:35:07;43.00;;;25.60;;
63005;SDS011;53704;52.532;6.426;2024-03-06T13:37:37;37.70;;;23.50;;
63005;SDS011;53704;52.532;6.426;2024-03-06T13:40:03;32.30;;;22.88;;
63005;SDS011;53704;52.532;6.426;2024-03-06T13:42:32;40.22;;;22.42;;
63005;SDS011;53704;52.532;6.426;2024-03-06T13:44:57;30.75;;;22.73;;
63005;SDS011;53704;52.532;6.426;2024-03-06T13:47:23;29.55;;;21.45;;
63005;SDS011;53704;52.532;6.426;2024-03-06T13:49:48;32.42;;;24.05;;
63005;SDS011;53704;52.532;6.426;2024-03-06T13:52:14;39.67;;;24.13;;
63005;SDS011;53704;52.532;6.426;2024-03-06T13:54:40;39.65;;;23.08;;
63005;SDS011;53704;52.532;6.426;2024-03-06T13:57:07;37.33;;;25.33;;
63005;SDS011;53704;52.532;6.426;2024-03-06T13:59:34;39.90;;;26.20;;
63005;SDS011;53704;52.532;6.426;2024-03-06T14:02:00;40.17;;;27.45;;
63005;SDS011;53704;52.532;6.426;2024-03-06T14:04:27;40.15;;;26.75;;
63005;SDS011;53704;52.532;6.426;2024-03-06T14:06:53;45.45;;;26.27;;
63005;SDS011;53704;52.532;6.426;2024-03-06T14:09:19;40.33;;;25.27;;
63005;SDS011;53704;52.532;6.426;2024-03-06T14:11:45;52.70;;;27.83;;
63005;SDS011;53704;52.532;6.426;2024-03-06T14:14:10;42.03;;;27.25;;
63005;SDS011;53704;52.532;6.426;2024-03-06T14:16:36;44.30;;;26.45;;
63005;SDS011;53704;52.532;6.426;2024-03-06T14:19:04;43.03;;;27.42;;
63005;SDS011;53704;52.532;6.426;2024-03-06T14:21:30;42.22;;;26.55;;
63005;SDS011;53704;52.532;6.426;2024-03-06T14:23:57;40.17;;;26.27;;
63005;SDS011;53704;52.532;6.426;2024-03-06T14:26:23;42.25;;;26.92;;
63005;SDS011;53704;52.532;6.426;2024-03-06T14:28:49;39.75;;;25.20;;
63005;SDS011;53704;52.532;6.426;2024-03-06T14:31:14;37.78;;;25.63;;
63005;SDS011;53704;52.532;6.426;2024-03-06T14:33:40;43.20;;;26.60;;